< < Back
Terminal Aerodrome Forecast


Current Version              Previous Versions:   1  2  3  4  5  6  7  8  9  

Terminal Aerodrome Forecast

450
FTUS42 KTAE 230700 AAA
TAFABY
TAF AMD
KABY 230745Z 2308/2406 00000KT 3SM BR SCT007 BKN050
      TEMPO 2308/2312 1/4SM FG BKN005
     FM231400 33005KT P6SM SCT040=

Latest METAR

170
SAUS70 KWBC 232156
MTRABY
METAR KABY 232153Z 25006KT 10SM FEW055 28/14 A2989 RMK AO2 SLP119
T02780139


USA.gov is the U.S. government's official web portal to all federal, state and local government web resources and services.